Time,TemperatureF,DewpointF,PressureIn,WindDirection,WindDirectionDegrees,WindSpeedMPH,WindSpeedGustMPH,Humidity,HourlyPrecipIn,Conditions,Clouds,dailyrainin,SoftwareType,DateUTC
2013-07-23 00:01:00,65.0,56.5,30.35,NNW,338,0.0,0.0,74,0.00,,,0.00,WUHU216HW,2013-07-23 07:01:00,
2013-07-23 00:06:00,64.8,56.4,30.34,NNW,338,0.0,0.0,74,0.00,,,0.00,WUHU216HW,2013-07-23 07:06:00,
2013-07-23 00:11:00,64.8,56.4,30.35,NNW,338,0.0,0.0,74,0.00,,,0.00,WUHU216HW,2013-07-23 07:11:00,
2013-07-23 00:16:00,64.6,56.2,30.35,NNW,338,0.0,0.0,74,0.00,,,0.00,WUHU216HW,2013-07-23 07:16:00,
2013-07-23 00:21:00,64.6,56.2,30.35,NNW,338,0.0,0.0,74,0.00,,,0.00,WUHU216HW,2013-07-23 07:21:00,
2013-07-23 00:26:00,64.4,56.0,30.35,NNW,338,0.0,0.0,74,0.00,,,0.00,WUHU216HW,2013-07-23 07:26:00,
2013-07-23 00:31:00,64.3,56.2,30.35,NNW,338,0.0,0.0,75,0.00,,,0.00,WUHU216HW,2013-07-23 07:31:00,
2013-07-23 00:36:00,64.3,56.2,30.35,NNW,338,0.0,0.0,75,0.00,,,0.00,WUHU216HW,2013-07-23 07:36:00,
2013-07-23 00:41:00,64.1,56.0,30.35,NNW,338,0.0,0.0,75,0.00,,,0.00,WUHU216HW,2013-07-23 07:41:00,
2013-07-23 00:46:00,63.9,56.2,30.35,NNW,338,0.0,0.0,76,0.00,,,0.00,WUHU216HW,2013-07-23 07:46:00,
2013-07-23 00:51:00,63.7,56.0,30.35,NNW,338,0.0,0.0,76,0.00,,,0.00,WUHU216HW,2013-07-23 07:51:00,
2013-07-23 00:56:00,63.5,55.8,30.35,NNW,338,0.0,0.0,76,0.00,,,0.00,WUHU216HW,2013-07-23 07:56:00,
2013-07-23 01:01:00,63.5,55.8,30.35,NNW,338,0.0,0.0,76,0.00,,,0.00,WUHU216HW,2013-07-23 08:01:00,
2013-07-23 01:06:00,63.5,55.8,30.35,NNW,338,0.0,0.0,76,0.00,,,0.00,WUHU216HW,2013-07-23 08:06:00,
2013-07-23 01:11:00,63.4,55.6,30.36,NNW,338,0.0,0.0,76,0.00,,,0.00,WUHU216HW,2013-07-23 08:11:00,
2013-07-23 01:16:00,63.2,55.4,30.35,NNW,338,0.0,0.0,76,0.00,,,0.00,WUHU216HW,2013-07-23 08:16:00,
2013-07-23 01:21:00,63.0,55.3,30.35,NNW,338,0.0,0.0,76,0.00,,,0.00,WUHU216HW,2013-07-23 08:21:00,
2013-07-23 01:26:00,62.8,55.1,30.35,NNW,338,0.0,0.0,76,0.00,,,0.00,WUHU216HW,2013-07-23 08:26:00,
2013-07-23 01:31:00,62.6,54.9,30.35,NNW,338,0.0,0.0,76,0.00,,,0.00,WUHU216HW,2013-07-23 08:31:00,
2013-07-23 01:36:00,62.6,54.9,30.35,NNW,338,0.0,0.0,76,0.00,,,0.00,WUHU216HW,2013-07-23 08:36:00,
2013-07-23 01:41:00,62.5,55.1,30.35,NNW,338,0.0,0.0,77,0.00,,,0.00,WUHU216HW,2013-07-23 08:41:00,
2013-07-23 01:46:00,62.3,54.9,30.35,NNW,338,0.0,0.0,77,0.00,,,0.00,WUHU216HW,2013-07-23 08:46:00,
2013-07-23 01:51:00,62.3,54.9,30.35,NNW,338,0.9,0.9,77,0.00,,,0.00,WUHU216HW,2013-07-23 08:51:00,
2013-07-23 01:56:00,62.1,54.8,30.35,NNW,338,0.0,0.9,77,0.00,,,0.00,WUHU216HW,2013-07-23 08:56:00,
2013-07-23 02:01:00,61.9,54.6,30.35,NNW,338,0.0,0.0,77,0.00,,,0.00,WUHU216HW,2013-07-23 09:01:00,
2013-07-23 02:06:00,61.9,55.0,30.36,NNW,338,0.0,0.0,78,0.00,,,0.00,WUHU216HW,2013-07-23 09:06:00,
2013-07-23 02:11:00,61.7,54.8,30.36,NNW,338,0.0,0.0,78,0.00,,,0.00,WUHU216HW,2013-07-23 09:11:00,
2013-07-23 02:16:00,61.6,54.6,30.36,NNW,338,0.0,0.0,78,0.00,,,0.00,WUHU216HW,2013-07-23 09:16:00,
2013-07-23 02:21:00,61.6,54.6,30.36,NNW,338,0.0,0.0,78,0.00,,,0.00,WUHU216HW,2013-07-23 09:21:00,
2013-07-23 02:26:00,61.4,54.5,30.36,NNW,338,0.0,0.0,78,0.00,,,0.00,WUHU216HW,2013-07-23 09:26:00,
2013-07-23 02:31:00,61.2,54.4,30.36,NNW,338,0.0,0.0,78,0.00,,,0.00,WUHU216HW,2013-07-23 09:31:00,
2013-07-23 02:36:00,61.0,54.6,30.36,NNW,338,0.0,0.0,79,0.00,,,0.00,WUHU216HW,2013-07-23 09:36:00,
2013-07-23 02:41:00,60.8,54.4,30.36,NNW,338,0.0,0.0,79,0.00,,,0.00,WUHU216HW,2013-07-23 09:41:00,
2013-07-23 02:46:00,60.8,54.4,30.35,NNW,338,0.0,0.0,79,0.00,,,0.00,WUHU216HW,2013-07-23 09:46:00,
2013-07-23 02:51:00,60.7,54.2,30.36,NNW,338,0.0,0.0,79,0.00,,,0.00,WUHU216HW,2013-07-23 09:51:00,
2013-07-23 02:56:00,60.5,54.0,30.36,NNW,338,0.0,0.0,79,0.00,,,0.00,WUHU216HW,2013-07-23 09:56:00,
2013-07-23 03:01:00,60.3,53.8,30.36,NNW,338,0.0,0.0,79,0.00,,,0.00,WUHU216HW,2013-07-23 10:01:00,
2013-07-23 03:06:00,60.3,53.8,30.36,NNW,338,0.0,0.0,79,0.00,,,0.00,WUHU216HW,2013-07-23 10:06:00,
2013-07-23 03:11:00,60.3,54.2,30.36,NNW,338,0.0,0.0,80,0.00,,,0.00,WUHU216HW,2013-07-23 10:11:00,
2013-07-23 03:16:00,60.1,54.0,30.36,NNW,338,0.0,0.0,80,0.00,,,0.00,WUHU216HW,2013-07-23 10:16:00,
2013-07-23 03:21:00,60.1,54.0,30.36,NNW,338,0.0,0.0,80,0.00,,,0.00,WUHU216HW,2013-07-23 10:21:00,
2013-07-23 03:26:00,60.1,54.0,30.36,NNW,338,0.0,0.0,80,0.00,,,0.00,WUHU216HW,2013-07-23 10:26:00,
2013-07-23 03:31:00,60.1,54.0,30.36,NNW,338,0.0,0.0,80,0.00,,,0.00,WUHU216HW,2013-07-23 10:31:00,
2013-07-23 03:36:00,59.8,54.0,30.36,NNW,338,0.0,0.0,81,0.00,,,0.00,WUHU216HW,2013-07-23 10:36:00,
2013-07-23 03:41:00,59.6,53.8,30.37,NNW,338,0.0,0.0,81,0.00,,,0.00,WUHU216HW,2013-07-23 10:41:00,
2013-07-23 03:46:00,59.6,53.8,30.37,NNW,338,0.0,0.0,81,0.00,,,0.00,WUHU216HW,2013-07-23 10:46:00,
2013-07-23 03:51:00,59.6,53.8,30.37,NNW,338,0.0,0.0,81,0.00,,,0.00,WUHU216HW,2013-07-23 10:51:00,
2013-07-23 03:56:00,59.4,53.7,30.37,NNW,338,0.0,0.0,81,0.00,,,0.00,WUHU216HW,2013-07-23 10:56:00,
2013-07-23 04:01:00,59.4,53.7,30.37,NNW,338,0.0,0.0,81,0.00,,,0.00,WUHU216HW,2013-07-23 11:01:00,
2013-07-23 04:06:00,59.4,53.7,30.37,NNW,338,0.0,0.0,81,0.00,,,0.00,WUHU216HW,2013-07-23 11:06:00,
2013-07-23 04:11:00,59.2,53.5,30.37,NNW,338,0.0,0.0,81,0.00,,,0.00,WUHU216HW,2013-07-23 11:11:00,
2013-07-23 04:16:00,59.2,53.7,30.37,NNW,338,0.0,0.0,82,0.00,,,0.00,WUHU216HW,2013-07-23 11:16:00,
2013-07-23 04:21:00,59.2,53.7,30.37,NNW,338,0.0,0.0,82,0.00,,,0.00,WUHU216HW,2013-07-23 11:21:00,
2013-07-23 04:26:00,59.0,53.6,30.37,NNW,338,0.0,0.0,82,0.00,,,0.00,WUHU216HW,2013-07-23 11:26:00,
2013-07-23 04:31:00,59.0,53.6,30.37,NNW,338,0.0,0.0,82,0.00,,,0.00,WUHU216HW,2013-07-23 11:31:00,
2013-07-23 04:36:00,59.0,53.6,30.37,NNW,338,0.0,0.0,82,0.00,,,0.00,WUHU216HW,2013-07-23 11:36:00,
2013-07-23 04:41:00,59.0,53.6,30.37,NNW,338,0.0,0.0,82,0.00,,,0.00,WUHU216HW,2013-07-23 11:41:00,
2013-07-23 04:46:00,58.9,53.4,30.37,NW,315,0.0,0.7,82,0.00,,,0.00,WUHU216HW,2013-07-23 11:46:00,
2013-07-23 04:51:00,58.9,53.7,30.37,NNW,338,0.0,0.7,83,0.00,,,0.00,WUHU216HW,2013-07-23 11:51:00,
2013-07-23 04:56:00,58.7,53.6,30.37,NNW,338,0.0,0.7,83,0.00,,,0.00,WUHU216HW,2013-07-23 11:56:00,
2013-07-23 05:01:00,58.7,53.6,30.37,NNW,338,0.0,0.7,83,0.00,,,0.00,WUHU216HW,2013-07-23 12:01:00,
2013-07-23 05:06:00,58.7,53.6,30.36,NNW,338,0.0,0.0,83,0.00,,,0.00,WUHU216HW,2013-07-23 12:06:00,
2013-07-23 05:11:00,58.5,53.4,30.36,NNW,338,0.0,0.0,83,0.00,,,0.00,WUHU216HW,2013-07-23 12:11:00,
2013-07-23 05:16:00,58.5,53.4,30.36,NNW,338,0.0,0.0,83,0.00,,,0.00,WUHU216HW,2013-07-23 12:16:00,
2013-07-23 05:21:00,58.5,53.4,30.36,NNW,338,0.0,0.0,83,0.00,,,0.00,WUHU216HW,2013-07-23 12:21:00,
2013-07-23 05:26:00,58.5,53.4,30.37,NNW,338,0.0,0.0,83,0.00,,,0.00,WUHU216HW,2013-07-23 12:26:00,
2013-07-23 05:31:00,58.5,53.4,30.37,NNW,338,0.0,0.0,83,0.00,,,0.00,WUHU216HW,2013-07-23 12:31:00,
2013-07-23 05:36:00,58.3,53.2,30.37,NNW,338,0.0,0.0,83,0.00,,,0.00,WUHU216HW,2013-07-23 12:36:00,
2013-07-23 05:41:00,58.3,53.2,30.37,NNW,338,0.0,0.0,83,0.00,,,0.00,WUHU216HW,2013-07-23 12:41:00,
2013-07-23 05:46:00,58.1,53.0,30.37,NNW,338,0.0,0.0,83,0.00,,,0.00,WUHU216HW,2013-07-23 12:46:00,
2013-07-23 05:51:00,58.1,53.0,30.37,NNW,338,0.0,0.0,83,0.00,,,0.00,WUHU216HW,2013-07-23 12:51:00,
2013-07-23 05:56:00,58.0,52.8,30.37,NNW,338,0.0,0.0,83,0.00,,,0.00,WUHU216HW,2013-07-23 12:56:00,
2013-07-23 06:01:00,58.0,52.8,30.37,NNW,338,0.0,0.0,83,0.00,,,0.00,WUHU216HW,2013-07-23 13:01:00,
2013-07-23 06:06:00,58.0,52.8,30.37,NNW,338,0.0,0.0,83,0.00,,,0.00,WUHU216HW,2013-07-23 13:06:00,
2013-07-23 06:11:00,58.0,53.1,30.37,NNW,338,0.0,0.0,84,0.00,,,0.00,WUHU216HW,2013-07-23 13:11:00,
2013-07-23 06:12:00,58.0,53.1,30.37,NNW,338,0.0,0.0,84,0.00,,,0.00,WUHU216HW,2013-07-23 13:12:00,
2013-07-23 06:17:00,58.0,53.1,30.37,NNW,338,0.0,0.0,84,0.00,,,0.00,WUHU216HW,2013-07-23 13:17:00,
2013-07-23 06:22:00,58.0,53.1,30.37,NNW,338,0.0,0.0,84,0.00,,,0.00,WUHU216HW,2013-07-23 13:22:00,
2013-07-23 06:27:00,58.0,53.1,30.37,NNW,338,0.0,0.0,84,0.00,,,0.00,WUHU216HW,2013-07-23 13:27:00,
2013-07-23 06:32:00,58.0,53.1,30.37,NNW,338,0.0,0.0,84,0.00,,,0.00,WUHU216HW,2013-07-23 13:32:00,
2013-07-23 06:37:00,58.0,53.1,30.37,NNW,338,0.0,0.0,84,0.00,,,0.00,WUHU216HW,2013-07-23 13:37:00,
2013-07-23 06:42:00,58.0,53.1,30.37,NNW,338,0.0,0.0,84,0.00,,,0.00,WUHU216HW,2013-07-23 13:42:00,
2013-07-23 06:47:00,58.0,53.1,30.37,NNW,338,0.0,0.0,84,0.00,,,0.00,WUHU216HW,2013-07-23 13:47:00,
2013-07-23 06:52:00,58.0,53.1,30.37,NNW,338,0.0,0.0,84,0.00,,,0.00,WUHU216HW,2013-07-23 13:52:00,
2013-07-23 06:57:00,58.0,53.1,30.37,NNW,338,0.0,0.0,84,0.00,,,0.00,WUHU216HW,2013-07-23 13:57:00,
2013-07-23 07:02:00,58.0,53.1,30.37,NNW,338,0.0,0.0,84,0.00,,,0.00,WUHU216HW,2013-07-23 14:02:00,
2013-07-23 07:07:00,58.0,53.1,30.37,NNW,338,0.0,0.0,84,0.00,,,0.00,WUHU216HW,2013-07-23 14:07:00,
2013-07-23 07:12:00,58.0,53.1,30.37,NNW,338,0.0,0.0,84,0.00,,,0.00,WUHU216HW,2013-07-23 14:12:00,
2013-07-23 07:17:00,58.0,53.1,30.37,NNW,338,0.0,0.0,84,0.00,,,0.00,WUHU216HW,2013-07-23 14:17:00,
2013-07-23 07:22:00,58.0,53.1,30.37,NNW,338,0.0,0.0,84,0.00,,,0.00,WUHU216HW,2013-07-23 14:22:00,
2013-07-23 07:27:00,58.0,53.1,30.37,NNW,338,0.0,0.0,84,0.00,,,0.00,WUHU216HW,2013-07-23 14:27:00,
2013-07-23 07:32:00,58.1,53.3,30.37,NNW,338,0.0,0.0,84,0.00,,,0.00,WUHU216HW,2013-07-23 14:32:00,
2013-07-23 07:37:00,58.1,53.6,30.38,NNW,338,0.0,0.0,85,0.00,,,0.00,WUHU216HW,2013-07-23 14:37:00,
2013-07-23 07:42:00,58.3,53.8,30.38,NNW,338,0.0,0.0,85,0.00,,,0.00,WUHU216HW,2013-07-23 14:42:00,
2013-07-23 07:47:00,58.3,53.8,30.38,NNW,338,0.0,0.0,85,0.00,,,0.00,WUHU216HW,2013-07-23 14:47:00,
2013-07-23 07:52:00,58.5,54.0,30.38,South,180,0.4,0.7,85,0.00,,,0.00,WUHU216HW,2013-07-23 14:52:00,
2013-07-23 07:57:00,58.7,54.2,30.38,South,180,0.0,0.7,85,0.00,,,0.00,WUHU216HW,2013-07-23 14:57:00,
2013-07-23 08:02:00,58.7,54.2,30.38,South,180,0.0,0.7,85,0.00,,,0.00,WUHU216HW,2013-07-23 15:02:00,
2013-07-23 08:07:00,58.7,53.8,30.38,South,180,0.0,0.2,84,0.00,,,0.00,WUHU216HW,2013-07-23 15:07:00,
2013-07-23 08:12:00,58.9,54.0,30.38,South,180,0.0,0.0,84,0.00,,,0.00,WUHU216HW,2013-07-23 15:12:00,
2013-07-23 08:17:00,59.0,54.2,30.38,SSE,158,0.0,0.2,84,0.00,,,0.00,WUHU216HW,2013-07-23 15:17:00,
2013-07-23 08:22:00,59.4,54.5,30.38,SSE,158,0.0,0.7,84,0.00,,,0.00,WUHU216HW,2013-07-23 15:22:00,
2013-07-23 08:27:00,59.4,54.5,30.38,SSE,158,0.0,0.7,84,0.00,,,0.00,WUHU216HW,2013-07-23 15:27:00,
2013-07-23 08:32:00,59.8,54.9,30.38,SSW,203,0.9,1.3,84,0.00,,,0.00,WUHU216HW,2013-07-23 15:32:00,
2013-07-23 08:37:00,60.1,55.3,30.38,SW,225,0.0,1.3,84,0.00,,,0.00,WUHU216HW,2013-07-23 15:37:00,
2013-07-23 08:42:00,60.1,55.3,30.38,SSE,158,0.9,1.3,84,0.00,,,0.00,WUHU216HW,2013-07-23 15:42:00,
2013-07-23 08:47:00,60.5,55.4,30.38,South,180,1.3,1.3,83,0.00,,,0.00,WUHU216HW,2013-07-23 15:47:00,
2013-07-23 08:52:00,60.8,55.7,30.38,SSW,203,0.0,1.8,83,0.00,,,0.00,WUHU216HW,2013-07-23 15:52:00,
2013-07-23 08:57:00,61.2,56.1,30.38,South,180,0.7,2.5,83,0.00,,,0.00,WUHU216HW,2013-07-23 15:57:00,
2013-07-23 09:02:00,61.6,56.1,30.38,SSE,158,0.0,2.5,82,0.00,,,0.00,WUHU216HW,2013-07-23 16:02:00,
2013-07-23 09:07:00,61.9,56.3,30.38,NW,315,0.0,1.8,82,0.00,,,0.00,WUHU216HW,2013-07-23 16:07:00,
2013-07-23 09:12:00,62.1,56.2,30.38,NW,315,0.0,0.4,81,0.00,,,0.00,WUHU216HW,2013-07-23 16:12:00,
2013-07-23 09:17:00,62.3,56.3,30.37,WSW,248,0.7,0.7,81,0.00,,,0.00,WUHU216HW,2013-07-23 16:17:00,
2013-07-23 09:22:00,62.6,56.7,30.37,SSW,203,0.0,1.8,81,0.00,,,0.00,WUHU216HW,2013-07-23 16:22:00,
2013-07-23 09:27:00,63.0,56.7,30.38,North,0,0.4,1.8,80,0.00,,,0.00,WUHU216HW,2013-07-23 16:27:00,
2013-07-23 09:32:00,63.4,57.1,30.38,SSE,158,1.8,1.8,80,0.00,,,0.00,WUHU216HW,2013-07-23 16:32:00,
2013-07-23 09:37:00,63.7,57.1,30.38,South,180,0.0,1.8,79,0.00,,,0.00,WUHU216HW,2013-07-23 16:37:00,
2013-07-23 09:42:00,64.1,57.8,30.38,SSE,158,1.8,2.5,80,0.00,,,0.00,WUHU216HW,2013-07-23 16:42:00,
2013-07-23 09:47:00,64.4,57.4,30.38,South,180,2.2,2.9,78,0.00,,,0.00,WUHU216HW,2013-07-23 16:47:00,
2013-07-23 09:52:00,64.8,57.8,30.37,SW,225,0.2,2.9,78,0.00,,,0.00,WUHU216HW,2013-07-23 16:52:00,
2013-07-23 09:57:00,65.2,58.2,30.38,SSW,203,0.0,2.0,78,0.00,,,0.00,WUHU216HW,2013-07-23 16:57:00,
2013-07-23 10:02:00,65.3,58.0,30.37,SSE,158,1.3,2.0,77,0.00,,,0.00,WUHU216HW,2013-07-23 17:02:00,
2013-07-23 10:07:00,65.7,58.3,30.37,WSW,248,2.0,4.3,77,0.00,,,0.00,WUHU216HW,2013-07-23 17:07:00,
2013-07-23 10:12:00,66.1,58.2,30.37,SSE,158,1.3,4.3,76,0.00,,,0.00,WUHU216HW,2013-07-23 17:12:00,
2013-07-23 10:17:00,66.4,58.6,30.37,SSE,158,1.6,3.4,76,0.00,,,0.00,WUHU216HW,2013-07-23 17:17:00,
2013-07-23 10:22:00,66.8,59.0,30.37,WNW,293,0.0,2.7,76,0.00,,,0.00,WUHU216HW,2013-07-23 17:22:00,
2013-07-23 10:27:00,67.3,59.1,30.37,SSE,158,2.5,4.7,75,0.00,,,0.00,WUHU216HW,2013-07-23 17:27:00,
2013-07-23 10:32:00,67.5,59.0,30.37,WSW,248,0.0,4.7,74,0.00,,,0.00,WUHU216HW,2013-07-23 17:32:00,
2013-07-23 10:37:00,68.0,59.5,30.37,South,180,1.8,2.2,74,0.00,,,0.00,WUHU216HW,2013-07-23 17:37:00,
2013-07-23 10:42:00,68.6,59.6,30.37,NNW,338,0.0,2.0,73,0.00,,,0.00,WUHU216HW,2013-07-23 17:42:00,
2013-07-23 10:47:00,68.8,59.0,30.37,SSW,203,0.7,2.9,71,0.00,,,0.00,WUHU216HW,2013-07-23 17:47:00,
2013-07-23 10:52:00,69.1,59.3,30.37,South,180,2.0,2.9,71,0.00,,,0.00,WUHU216HW,2013-07-23 17:52:00,
2013-07-23 10:57:00,69.5,59.2,30.37,East,90,0.2,2.0,70,0.00,,,0.00,WUHU216HW,2013-07-23 17:57:00,
2013-07-23 11:02:00,69.8,59.1,30.37,NE,45,0.0,3.6,69,0.00,,,0.00,WUHU216HW,2013-07-23 18:02:00,
2013-07-23 11:07:00,70.2,59.1,30.37,South,180,1.8,3.6,68,0.00,,,0.00,WUHU216HW,2013-07-23 18:07:00,
2013-07-23 11:12:00,70.6,59.5,30.36,East,90,0.9,2.7,68,0.00,,,0.00,WUHU216HW,2013-07-23 18:12:00,
2013-07-23 11:18:00,70.9,59.9,30.36,North,0,0.2,2.5,68,0.00,,,0.00,WUHU216HW,2013-07-23 18:18:00,
2013-07-23 11:23:00,71.5,59.5,30.36,NNE,23,3.4,3.4,66,0.00,,,0.00,WUHU216HW,2013-07-23 18:23:00,
2013-07-23 11:28:00,71.8,60.7,30.36,SSE,158,0.2,3.4,68,0.00,,,0.00,WUHU216HW,2013-07-23 18:28:00,
2013-07-23 11:33:00,72.4,60.3,30.36,West,270,0.4,2.2,66,0.00,,,0.00,WUHU216HW,2013-07-23 18:33:00,
2013-07-23 11:39:00,72.9,60.8,30.35,SSW,203,2.5,2.5,66,0.00,,,0.00,WUHU216HW,2013-07-23 18:39:00,
2013-07-23 11:44:00,73.1,60.6,30.35,North,0,1.1,3.6,65,0.00,,,0.00,WUHU216HW,2013-07-23 18:44:00,
2013-07-23 11:49:00,73.8,60.9,30.35,North,0,0.0,3.8,64,0.00,,,0.00,WUHU216HW,2013-07-23 18:49:00,
2013-07-23 11:53:00,74.3,60.9,30.35,North,0,2.5,3.8,63,0.00,,,0.00,WUHU216HW,2013-07-23 18:53:00,
2013-07-23 11:59:00,75.1,62.0,30.35,NE,45,1.3,2.5,64,0.00,,,0.00,WUHU216HW,2013-07-23 18:59:00,
2013-07-23 12:04:00,75.6,61.7,30.35,North,0,1.6,2.5,62,0.00,,,0.00,WUHU216HW,2013-07-23 19:04:00,
2013-07-23 12:09:00,76.0,61.6,30.35,WNW,293,0.4,2.5,61,0.00,,,0.00,WUHU216HW,2013-07-23 19:09:00,
2013-07-23 12:14:00,76.5,61.7,30.35,SSE,158,2.0,2.2,60,0.00,,,0.00,WUHU216HW,2013-07-23 19:14:00,
2013-07-23 12:19:00,77.0,60.1,30.34,NE,45,0.4,2.2,56,0.00,,,0.00,WUHU216HW,2013-07-23 19:19:00,
2013-07-23 12:24:00,77.4,60.4,30.34,NNW,338,0.4,2.0,56,0.00,,,0.00,WUHU216HW,2013-07-23 19:24:00,
2013-07-23 12:29:00,77.9,60.9,30.34,North,0,0.2,2.0,56,0.00,,,0.00,WUHU216HW,2013-07-23 19:29:00,
2013-07-23 12:34:00,78.5,60.9,30.34,North,0,1.3,1.3,55,0.00,,,0.00,WUHU216HW,2013-07-23 19:34:00,
2013-07-23 12:39:00,79.0,61.5,30.34,West,270,1.8,1.8,55,0.00,,,0.00,WUHU216HW,2013-07-23 19:39:00,
2013-07-23 12:44:00,79.6,61.4,30.34,SW,225,1.1,1.8,54,0.00,,,0.00,WUHU216HW,2013-07-23 19:44:00,
2013-07-23 12:50:00,79.9,60.7,30.33,North,0,1.6,1.6,52,0.00,,,0.00,WUHU216HW,2013-07-23 19:50:00,
2013-07-23 12:55:00,80.5,60.7,30.33,South,180,0.0,3.8,51,0.00,,,0.00,WUHU216HW,2013-07-23 19:55:00,
2013-07-23 13:00:00,80.6,60.3,30.33,NE,45,0.7,4.3,50,0.00,,,0.00,WUHU216HW,2013-07-23 20:00:00,
2013-07-23 13:05:00,80.8,59.9,30.33,NNW,338,1.6,4.3,49,0.00,,,0.00,WUHU216HW,2013-07-23 20:05:00,
2013-07-23 13:10:00,81.2,60.2,30.33,NNW,338,1.1,2.9,49,0.00,,,0.00,WUHU216HW,2013-07-23 20:10:00,
2013-07-23 13:15:00,81.4,60.3,30.33,NE,45,1.1,2.9,49,0.00,,,0.00,WUHU216HW,2013-07-23 20:15:00,
2013-07-23 13:20:00,81.4,59.1,30.32,North,0,1.3,3.1,47,0.00,,,0.00,WUHU216HW,2013-07-23 20:20:00,
2013-07-23 13:26:00,81.7,60.7,30.32,WNW,293,1.6,3.1,49,0.00,,,0.00,WUHU216HW,2013-07-23 20:26:00,
2013-07-23 13:32:00,82.1,59.1,30.32,North,0,2.2,5.1,46,0.00,,,0.00,WUHU216HW,2013-07-23 20:32:00,
2013-07-23 13:37:00,82.3,58.7,30.32,SSE,158,2.0,5.1,45,0.00,,,0.00,WUHU216HW,2013-07-23 20:37:00,
2013-07-23 13:42:00,82.8,59.9,30.32,North,0,0.2,2.5,46,0.00,,,0.00,WUHU216HW,2013-07-23 20:42:00,
2013-07-23 13:47:00,83.2,59.0,30.32,WNW,293,0.9,2.5,44,0.00,,,0.00,WUHU216HW,2013-07-23 20:47:00,
2013-07-23 13:52:00,83.5,59.2,30.32,North,0,2.2,2.5,44,0.00,,,0.00,WUHU216HW,2013-07-23 20:52:00,
2013-07-23 13:57:00,83.5,59.2,30.32,North,0,3.1,5.1,44,0.00,,,0.00,WUHU216HW,2013-07-23 20:57:00,
2013-07-23 14:02:00,83.7,58.1,30.32,NE,45,1.1,5.1,42,0.00,,,0.00,WUHU216HW,2013-07-23 21:02:00,
2013-07-23 14:07:00,83.7,58.8,30.32,NE,45,0.4,3.6,43,0.00,,,0.00,WUHU216HW,2013-07-23 21:07:00,
2013-07-23 14:13:00,84.1,59.8,30.32,North,0,0.9,4.7,44,0.00,,,0.00,WUHU216HW,2013-07-23 21:13:00,
2013-07-23 14:18:00,84.4,59.5,30.32,NNE,23,0.4,3.8,43,0.00,,,0.00,WUHU216HW,2013-07-23 21:18:00,
2013-07-23 14:23:00,84.6,59.7,30.32,NNW,338,1.3,3.4,43,0.00,,,0.00,WUHU216HW,2013-07-23 21:23:00,
2013-07-23 14:28:00,85.0,59.9,30.32,SW,225,0.9,2.5,43,0.00,,,0.00,WUHU216HW,2013-07-23 21:28:00,
2013-07-23 14:33:00,85.0,59.3,30.32,North,0,0.0,4.0,42,0.00,,,0.00,WUHU216HW,2013-07-23 21:33:00,
2013-07-23 14:39:00,85.3,59.1,30.31,NNW,338,1.8,4.0,41,0.00,,,0.00,WUHU216HW,2013-07-23 21:39:00,
2013-07-23 14:44:00,85.3,59.1,30.31,South,180,1.8,4.0,41,0.00,,,0.00,WUHU216HW,2013-07-23 21:44:00,
2013-07-23 14:49:00,85.3,59.1,30.31,North,0,0.4,4.0,41,0.00,,,0.00,WUHU216HW,2013-07-23 21:49:00,
2013-07-23 14:54:00,85.3,57.6,30.31,North,0,0.7,3.4,39,0.00,,,0.00,WUHU216HW,2013-07-23 21:54:00,
2013-07-23 14:59:00,85.5,58.6,30.31,WNW,293,3.4,3.4,40,0.00,,,0.00,WUHU216HW,2013-07-23 21:59:00,
2013-07-23 15:04:00,85.5,57.8,30.31,NNW,338,0.4,3.4,39,0.00,,,0.00,WUHU216HW,2013-07-23 22:04:00,
2013-07-23 15:09:00,85.5,58.6,30.31,North,0,0.4,3.4,40,0.00,,,0.00,WUHU216HW,2013-07-23 22:09:00,
2013-07-23 15:14:00,85.7,57.2,30.31,NNW,338,1.1,3.1,38,0.00,,,0.00,WUHU216HW,2013-07-23 22:14:00,
2013-07-23 15:19:00,85.7,54.7,30.31,North,0,2.2,3.1,35,0.00,,,0.00,WUHU216HW,2013-07-23 22:19:00,
2013-07-23 15:24:00,85.5,56.2,30.31,North,0,1.6,2.2,37,0.00,,,0.00,WUHU216HW,2013-07-23 22:24:00,
2013-07-23 15:30:00,85.7,57.2,30.31,NNW,338,0.4,2.7,38,0.00,,,0.00,WUHU216HW,2013-07-23 22:30:00,
2013-07-23 15:35:00,85.7,56.3,30.30,North,0,2.9,2.9,37,0.00,,,0.00,WUHU216HW,2013-07-23 22:35:00,
2013-07-23 15:40:00,85.7,54.7,30.30,NNW,338,2.0,2.9,35,0.00,,,0.00,WUHU216HW,2013-07-23 22:40:00,
2013-07-23 15:41:00,85.3,56.0,30.30,NNW,338,0.4,2.9,37,0.00,,,0.00,WUHU216HW,2013-07-23 22:41:00,
2013-07-23 15:46:00,85.1,55.9,30.30,North,0,3.1,3.1,37,0.00,,,0.00,WUHU216HW,2013-07-23 22:46:00,
2013-07-23 16:02:00,85.1,57.4,30.30,North,0,0.9,3.4,39,0.00,,,0.00,WUHU216HW,2013-07-23 23:02:00,
2013-07-23 16:09:00,85.0,55.7,30.30,NNW,338,0.4,3.4,37,0.00,,,0.00,WUHU216HW,2013-07-23 23:09:00,
2013-07-23 16:15:00,84.6,56.2,30.30,North,0,2.2,2.2,38,0.00,,,0.00,WUHU216HW,2013-07-23 23:15:00,
2013-07-23 16:20:00,84.4,55.2,30.30,North,0,2.2,3.6,37,0.00,,,0.00,WUHU216HW,2013-07-23 23:20:00,
2013-07-23 16:27:00,84.2,56.6,30.30,North,0,0.7,3.6,39,0.00,,,0.00,WUHU216HW,2013-07-23 23:27:00,
2013-07-23 16:32:00,84.1,55.7,30.30,North,0,1.1,3.4,38,0.00,,,0.00,WUHU216HW,2013-07-23 23:32:00,
2013-07-23 16:38:00,83.9,55.5,30.29,SW,225,2.2,3.4,38,0.00,,,0.00,WUHU216HW,2013-07-23 23:38:00,
2013-07-23 16:43:00,84.1,55.7,30.29,North,0,0.9,3.1,38,0.00,,,0.00,WUHU216HW,2013-07-23 23:43:00,
2013-07-23 16:48:00,83.9,55.5,30.29,North,0,1.1,4.3,38,0.00,,,0.00,WUHU216HW,2013-07-23 23:48:00,
2013-07-23 16:53:00,83.7,55.4,30.29,NNW,338,1.6,2.5,38,0.00,,,0.00,WUHU216HW,2013-07-23 23:53:00,
2013-07-23 16:58:00,83.9,55.5,30.29,North,0,1.6,2.5,38,0.00,,,0.00,WUHU216HW,2013-07-23 23:58:00,
2013-07-23 17:03:00,83.7,55.4,30.28,North,0,2.0,2.5,38,0.00,,,0.00,WUHU216HW,2013-07-24 00:03:00,
2013-07-23 17:08:00,83.5,55.2,30.28,NNW,338,0.0,2.0,38,0.00,,,0.00,WUHU216HW,2013-07-24 00:08:00,
2013-07-23 17:13:00,83.5,54.4,30.28,North,0,3.4,3.4,37,0.00,,,0.00,WUHU216HW,2013-07-24 00:13:00,
2013-07-23 17:18:00,83.3,54.3,30.28,North,0,3.1,3.4,37,0.00,,,0.00,WUHU216HW,2013-07-24 00:18:00,
2013-07-23 17:24:00,83.2,54.9,30.29,NNW,338,1.1,3.8,38,0.00,,,0.00,WUHU216HW,2013-07-24 00:24:00,
2013-07-23 17:29:00,83.2,54.9,30.29,ENE,68,0.7,3.8,38,0.00,,,0.00,WUHU216HW,2013-07-24 00:29:00,
2013-07-23 17:34:00,83.0,55.5,30.28,North,0,0.9,2.9,39,0.00,,,0.00,WUHU216HW,2013-07-24 00:34:00,
2013-07-23 17:39:00,82.8,55.4,30.28,North,0,0.7,2.9,39,0.00,,,0.00,WUHU216HW,2013-07-24 00:39:00,
2013-07-23 17:44:00,82.8,56.2,30.28,North,0,0.9,1.3,40,0.00,,,0.00,WUHU216HW,2013-07-24 00:44:00,
2013-07-23 17:49:00,82.8,54.5,30.28,NE,45,1.1,3.4,38,0.00,,,0.00,WUHU216HW,2013-07-24 00:49:00,
2013-07-23 17:54:00,82.8,55.4,30.28,North,0,1.3,3.4,39,0.00,,,0.00,WUHU216HW,2013-07-24 00:54:00,
2013-07-23 17:59:00,82.8,55.4,30.28,North,0,0.0,2.7,39,0.00,,,0.00,WUHU216HW,2013-07-24 00:59:00,
2013-07-23 18:04:00,82.8,55.4,30.28,NNW,338,1.1,2.9,39,0.00,,,0.00,WUHU216HW,2013-07-24 01:04:00,
2013-07-23 18:10:00,82.6,54.4,30.28,NNW,338,1.8,2.9,38,0.00,,,0.00,WUHU216HW,2013-07-24 01:10:00,
2013-07-23 18:15:00,82.4,55.0,30.28,North,0,0.0,2.9,39,0.00,,,0.00,WUHU216HW,2013-07-24 01:15:00,
2013-07-23 18:20:00,82.1,54.7,30.28,North,0,1.1,2.9,39,0.00,,,0.00,WUHU216HW,2013-07-24 01:20:00,
2013-07-23 18:24:00,82.1,54.7,30.28,North,0,0.4,3.6,39,0.00,,,0.00,WUHU216HW,2013-07-24 01:24:00,
2013-07-23 18:29:00,81.9,54.6,30.28,North,0,1.8,3.6,39,0.00,,,0.00,WUHU216HW,2013-07-24 01:29:00,
2013-07-23 18:35:00,81.7,53.6,30.28,NNW,338,1.1,3.1,38,0.00,,,0.00,WUHU216HW,2013-07-24 01:35:00,
2013-07-23 18:40:00,81.7,54.4,30.28,North,0,0.7,3.1,39,0.00,,,0.00,WUHU216HW,2013-07-24 01:40:00,
2013-07-23 18:45:00,81.7,54.4,30.29,NNW,338,0.4,3.8,39,0.00,,,0.00,WUHU216HW,2013-07-24 01:45:00,
2013-07-23 18:50:00,81.5,54.2,30.29,SE,135,1.1,4.0,39,0.00,,,0.00,WUHU216HW,2013-07-24 01:50:00,
2013-07-23 18:55:00,81.4,54.1,30.29,North,0,0.0,4.0,39,0.00,,,0.00,WUHU216HW,2013-07-24 01:55:00,
2013-07-23 19:01:00,81.4,54.1,30.29,North,0,0.7,3.1,39,0.00,,,0.00,WUHU216HW,2013-07-24 02:01:00,
2013-07-23 19:06:00,81.2,53.9,30.29,North,0,0.0,2.0,39,0.00,,,0.00,WUHU216HW,2013-07-24 02:06:00,
2013-07-23 19:11:00,81.0,54.6,30.29,NNW,338,0.0,1.3,40,0.00,,,0.00,WUHU216HW,2013-07-24 02:11:00,
2013-07-23 19:16:00,80.8,54.4,30.29,North,0,0.0,2.0,40,0.00,,,0.00,WUHU216HW,2013-07-24 02:16:00,
2013-07-23 19:22:00,80.6,54.2,30.29,North,0,0.4,2.0,40,0.00,,,0.00,WUHU216HW,2013-07-24 02:22:00,
2013-07-23 19:28:00,80.6,54.2,30.29,North,0,2.5,3.8,40,0.00,,,0.00,WUHU216HW,2013-07-24 02:28:00,
2013-07-23 19:33:00,80.5,54.6,30.29,North,0,0.0,2.5,41,0.00,,,0.00,WUHU216HW,2013-07-24 02:33:00,
2013-07-23 19:38:00,80.3,55.1,30.29,North,0,0.0,0.4,42,0.00,,,0.00,WUHU216HW,2013-07-24 02:38:00,
2013-07-23 19:43:00,79.9,54.7,30.30,North,0,0.0,0.0,42,0.00,,,0.00,WUHU216HW,2013-07-24 02:43:00,
2013-07-23 19:48:00,79.7,54.6,30.29,NNE,23,0.4,1.3,42,0.00,,,0.00,WUHU216HW,2013-07-24 02:48:00,
2013-07-23 19:53:00,79.6,54.5,30.29,NNE,23,0.0,1.3,42,0.00,,,0.00,WUHU216HW,2013-07-24 02:53:00,
2013-07-23 19:58:00,79.2,55.4,30.30,NNE,23,0.0,0.0,44,0.00,,,0.00,WUHU216HW,2013-07-24 02:58:00,
2013-07-23 20:04:00,78.8,55.0,30.29,NNE,23,0.0,0.0,44,0.00,,,0.00,WUHU216HW,2013-07-24 03:04:00,
2013-07-23 20:09:00,78.3,55.2,30.30,NNE,23,0.0,0.0,45,0.00,,,0.00,WUHU216HW,2013-07-24 03:09:00,
2013-07-23 20:14:00,78.1,55.0,30.30,NNE,23,0.0,0.2,45,0.00,,,0.00,WUHU216HW,2013-07-24 03:14:00,
2013-07-23 20:20:00,77.8,55.3,30.30,NNE,23,0.0,0.2,46,0.00,,,0.00,WUHU216HW,2013-07-24 03:20:00,
2013-07-23 20:25:00,77.4,54.9,30.30,NNE,23,0.0,0.0,46,0.00,,,0.00,WUHU216HW,2013-07-24 03:25:00,
2013-07-23 20:30:00,77.2,54.8,30.30,NNE,23,0.0,0.0,46,0.00,,,0.00,WUHU216HW,2013-07-24 03:30:00,
2013-07-23 20:36:00,76.7,54.3,30.30,NNE,23,0.0,0.0,46,0.00,,,0.00,WUHU216HW,2013-07-24 03:36:00,
2013-07-23 20:41:00,76.5,54.1,30.30,NNE,23,0.0,1.6,46,0.00,,,0.00,WUHU216HW,2013-07-24 03:41:00,
2013-07-23 20:46:00,76.1,54.5,30.30,NNE,23,0.0,1.6,47,0.00,,,0.00,WUHU216HW,2013-07-24 03:46:00,
2013-07-23 20:51:00,75.8,54.1,30.30,NNE,23,0.0,0.0,47,0.00,,,0.00,WUHU216HW,2013-07-24 03:51:00,
2013-07-23 20:56:00,75.4,54.4,30.31,NNE,23,0.0,0.2,48,0.00,,,0.00,WUHU216HW,2013-07-24 03:56:00,
2013-07-23 21:01:00,75.2,54.2,30.31,NNE,23,0.0,0.4,48,0.00,,,0.00,WUHU216HW,2013-07-24 04:01:00,
2013-07-23 21:02:00,75.1,54.0,30.31,NNE,23,0.0,0.4,48,0.00,,,0.00,WUHU216HW,2013-07-24 04:02:00,
2013-07-23 21:07:00,74.5,54.1,30.31,NNE,23,0.0,0.0,49,0.00,,,0.00,WUHU216HW,2013-07-24 04:07:00,
2013-07-23 21:12:00,74.2,53.7,30.31,NNE,23,0.0,0.2,49,0.00,,,0.00,WUHU216HW,2013-07-24 04:12:00,
2013-07-23 21:17:00,73.8,53.4,30.32,NNE,23,0.0,0.2,49,0.00,,,0.00,WUHU216HW,2013-07-24 04:17:00,
2013-07-23 21:22:00,73.6,53.8,30.32,NW,315,0.2,0.9,50,0.00,,,0.00,WUHU216HW,2013-07-24 04:22:00,
2013-07-23 21:27:00,73.3,54.0,30.32,NW,315,0.0,0.9,51,0.00,,,0.00,WUHU216HW,2013-07-24 04:27:00,
2013-07-23 21:32:00,73.1,54.4,30.32,NNW,338,0.0,1.8,52,0.00,,,0.00,WUHU216HW,2013-07-24 04:32:00,
2013-07-23 21:37:00,72.7,54.6,30.33,NNW,338,0.0,1.8,53,0.00,,,0.00,WUHU216HW,2013-07-24 04:37:00,
2013-07-23 21:42:00,72.4,54.7,30.33,NNW,338,0.0,0.0,54,0.00,,,0.00,WUHU216HW,2013-07-24 04:42:00,
2013-07-23 21:47:00,72.0,54.4,30.33,NNW,338,0.0,0.0,54,0.00,,,0.00,WUHU216HW,2013-07-24 04:47:00,
2013-07-23 21:52:00,71.8,54.7,30.33,NNW,338,0.0,0.0,55,0.00,,,0.00,WUHU216HW,2013-07-24 04:52:00,
2013-07-23 21:57:00,71.5,54.4,30.33,WNW,293,0.4,1.1,55,0.00,,,0.00,WUHU216HW,2013-07-24 04:57:00,
2013-07-23 22:02:00,71.1,54.1,30.34,NW,315,0.0,1.8,55,0.00,,,0.00,WUHU216HW,2013-07-24 05:02:00,
2013-07-23 22:07:00,70.9,53.9,30.34,NNW,338,0.0,1.8,55,0.00,,,0.00,WUHU216HW,2013-07-24 05:07:00,
2013-07-23 22:12:00,70.6,53.6,30.34,NNW,338,0.0,0.4,55,0.00,,,0.00,WUHU216HW,2013-07-24 05:12:00,
2013-07-23 22:17:00,70.4,53.4,30.34,South,180,0.0,0.4,55,0.00,,,0.00,WUHU216HW,2013-07-24 05:17:00,
2013-07-23 22:22:00,70.2,53.3,30.34,South,180,0.0,0.4,55,0.00,,,0.00,WUHU216HW,2013-07-24 05:22:00,
2013-07-23 22:27:00,70.0,53.1,30.35,South,180,0.0,0.4,55,0.00,,,0.00,WUHU216HW,2013-07-24 05:27:00,
2013-07-23 22:32:00,69.7,52.7,30.34,WNW,293,0.0,0.0,55,0.00,,,0.00,WUHU216HW,2013-07-24 05:32:00,
2013-07-23 22:37:00,69.3,52.9,30.35,WNW,293,0.0,0.0,56,0.00,,,0.00,WUHU216HW,2013-07-24 05:37:00,
2013-07-23 22:42:00,69.1,52.8,30.35,SSW,203,1.1,1.1,56,0.00,,,0.00,WUHU216HW,2013-07-24 05:42:00,
2013-07-23 22:47:00,68.8,52.9,30.35,SW,225,0.0,1.1,57,0.00,,,0.00,WUHU216HW,2013-07-24 05:47:00,
2013-07-23 22:52:00,68.6,53.2,30.35,NNW,338,1.6,1.6,58,0.00,,,0.00,WUHU216HW,2013-07-24 05:52:00,
2013-07-23 22:57:00,68.0,52.7,30.35,WNW,293,0.0,2.2,58,0.00,,,0.00,WUHU216HW,2013-07-24 05:57:00,
2013-07-23 23:02:00,67.7,52.4,30.35,West,270,0.0,2.2,58,0.00,,,0.00,WUHU216HW,2013-07-24 06:02:00,
2013-07-23 23:07:00,67.7,52.8,30.35,NW,315,0.0,0.7,59,0.00,,,0.00,WUHU216HW,2013-07-24 06:07:00,
2013-07-23 23:12:00,67.5,53.2,30.35,NNW,338,1.1,1.1,60,0.00,,,0.00,WUHU216HW,2013-07-24 06:12:00,
2013-07-23 23:17:00,67.1,52.8,30.34,NW,315,0.4,1.8,60,0.00,,,0.00,WUHU216HW,2013-07-24 06:17:00,
2013-07-23 23:22:00,66.8,52.5,30.34,NW,315,0.0,1.8,60,0.00,,,0.00,WUHU216HW,2013-07-24 06:22:00,
2013-07-23 23:27:00,66.6,52.7,30.34,NW,315,0.0,0.4,61,0.00,,,0.00,WUHU216HW,2013-07-24 06:27:00,
2013-07-23 23:32:00,66.2,52.5,30.34,NNW,338,0.0,0.9,61,0.00,,,0.00,WUHU216HW,2013-07-24 06:32:00,
2013-07-23 23:37:00,66.2,52.8,30.34,NNW,338,0.0,0.9,62,0.00,,,0.00,WUHU216HW,2013-07-24 06:37:00,
2013-07-23 23:42:00,65.9,52.5,30.34,NNW,338,0.0,0.4,62,0.00,,,0.00,WUHU216HW,2013-07-24 06:42:00,
2013-07-23 23:47:00,65.9,52.5,30.34,NNW,338,0.0,0.7,62,0.00,,,0.00,WUHU216HW,2013-07-24 06:47:00,
2013-07-23 23:52:00,65.5,52.6,30.34,NNW,338,0.0,0.7,63,0.00,,,0.00,WUHU216HW,2013-07-24 06:52:00,
2013-07-23 23:57:00,65.3,52.4,30.34,NNW,338,0.0,0.0,63,0.00,,,0.00,WUHU216HW,2013-07-24 06:57:00,